sensor_id;sensor_type;location;lat;lon;timestamp;noise_LAeq;noise_LA_min;noise_LA_max;noise_LA01;noise_LA95
66463;Laerm;56827;52.178;4.500;2023-05-18T00:00:06;30.94;29.33;32.06;;
66463;Laerm;56827;52.178;4.500;2023-05-18T00:00:20;31.17;29.82;32.83;;
66463;Laerm;56827;52.178;4.500;2023-05-18T00:00:30;31.75;30.13;34.16;;
66463;Laerm;56827;52.178;4.500;2023-05-18T00:00:40;31.14;29.52;32.30;;
66463;Laerm;56827;52.178;4.500;2023-05-18T00:00:53;31.21;29.59;33.27;;
66463;Laerm;56827;52.178;4.500;2023-05-18T00:01:04;31.26;29.37;37.39;;
66463;Laerm;56827;52.178;4.500;2023-05-18T00:01:17;35.76;30.11;48.21;;
66463;Laerm;56827;52.178;4.500;2023-05-18T00:01:27;30.91;29.55;34.79;;
66463;Laerm;56827;52.178;4.500;2023-05-18T00:01:39;30.52;28.72;32.68;;
66463;Laerm;56827;52.178;4.500;2023-05-18T00:01:51;30.71;29.41;32.87;;
66463;Laerm;56827;52.178;4.500;2023-05-18T00:02:03;30.33;29.08;31.85;;
66463;Laerm;56827;52.178;4.500;2023-05-18T00:02:14;30.76;29.18;33.08;;
66463;Laerm;56827;52.178;4.500;2023-05-18T00:02:27;30.86;29.46;32.45;;
66463;Laerm;56827;52.178;4.500;2023-05-18T00:02:37;30.86;29.61;32.48;;
66463;Laerm;56827;52.178;4.500;2023-05-18T00:02:47;30.66;29.46;31.84;;
66463;Laerm;56827;52.178;4.500;2023-05-18T00:02:58;30.40;29.00;31.50;;
66463;Laerm;56827;52.178;4.500;2023-05-18T00:03:08;31.05;29.56;33.78;;
66463;Laerm;56827;52.178;4.500;2023-05-18T00:03:19;31.36;29.77;33.08;;
66463;Laerm;56827;52.178;4.500;2023-05-18T00:03:29;31.58;29.67;36.75;;
66463;Laerm;56827;52.178;4.500;2023-05-18T00:03:42;32.82;29.44;39.23;;
66463;Laerm;56827;52.178;4.500;2023-05-18T00:03:52;33.17;29.07;41.15;;
66463;Laerm;56827;52.178;4.500;2023-05-18T00:04:03;32.09;29.47;36.87;;
66463;Laerm;56827;52.178;4.500;2023-05-18T00:04:14;33.11;30.35;36.94;;
66463;Laerm;56827;52.178;4.500;2023-05-18T00:04:26;37.01;33.77;43.30;;
66463;Laerm;56827;52.178;4.500;2023-05-18T00:04:37;37.41;33.13;40.96;;
66463;Laerm;56827;52.178;4.500;2023-05-18T00:04:48;41.03;35.95;48.15;;
66463;Laerm;56827;52.178;4.500;2023-05-18T00:04:58;43.45;36.40;50.65;;
66463;Laerm;56827;52.178;4.500;2023-05-18T00:05:10;44.87;35.96;52.08;;
66463;Laerm;56827;52.178;4.500;2023-05-18T00:05:21;39.81;34.42;46.86;;
66463;Laerm;56827;52.178;4.500;2023-05-18T00:05:31;37.35;31.39;43.36;;
66463;Laerm;56827;52.178;4.500;2023-05-18T00:05:43;33.71;30.38;40.91;;
66463;Laerm;56827;52.178;4.500;2023-05-18T00:05:54;31.39;29.69;35.36;;
66463;Laerm;56827;52.178;4.500;2023-05-18T00:06:06;30.70;29.22;32.65;;
66463;Laerm;56827;52.178;4.500;2023-05-18T00:06:17;31.17;29.43;34.18;;
66463;Laerm;56827;52.178;4.500;2023-05-18T00:06:27;30.79;29.46;32.77;;
66463;Laerm;56827;52.178;4.500;2023-05-18T00:06:37;30.66;29.44;34.47;;
66463;Laerm;56827;52.178;4.500;2023-05-18T00:06:47;31.16;29.47;34.18;;
66463;Laerm;56827;52.178;4.500;2023-05-18T00:06:58;31.44;29.82;36.36;;
66463;Laerm;56827;52.178;4.500;2023-05-18T00:07:12;30.62;29.21;32.04;;
66463;Laerm;56827;52.178;4.500;2023-05-18T00:07:23;30.86;29.38;32.04;;
66463;Laerm;56827;52.178;4.500;2023-05-18T00:07:33;31.25;29.77;32.50;;
66463;Laerm;56827;52.178;4.500;2023-05-18T00:07:44;31.82;29.17;35.66;;
66463;Laerm;56827;52.178;4.500;2023-05-18T00:07:55;31.18;29.70;32.67;;
66463;Laerm;56827;52.178;4.500;2023-05-18T00:08:05;31.03;29.66;32.82;;
66463;Laerm;56827;52.178;4.500;2023-05-18T00:08:15;32.02;30.02;34.45;;
66463;Laerm;56827;52.178;4.500;2023-05-18T00:08:26;38.52;31.11;43.43;;
66463;Laerm;56827;52.178;4.500;2023-05-18T00:08:36;42.11;36.26;46.85;;
66463;Laerm;56827;52.178;4.500;2023-05-18T00:08:47;43.90;37.66;52.85;;
66463;Laerm;56827;52.178;4.500;2023-05-18T00:08:57;45.79;37.56;52.90;;
66463;Laerm;56827;52.178;4.500;2023-05-18T00:09:07;39.11;32.35;44.47;;
66463;Laerm;56827;52.178;4.500;2023-05-18T00:09:17;40.15;33.65;49.60;;
66463;Laerm;56827;52.178;4.500;2023-05-18T00:09:31;33.73;30.20;39.12;;
66463;Laerm;56827;52.178;4.500;2023-05-18T00:09:41;31.31;29.09;37.56;;
66463;Laerm;56827;52.178;4.500;2023-05-18T00:09:52;31.70;29.82;35.00;;
66463;Laerm;56827;52.178;4.500;2023-05-18T00:10:02;31.59;29.20;38.86;;
66463;Laerm;56827;52.178;4.500;2023-05-18T00:10:12;31.11;28.96;32.99;;
66463;Laerm;56827;52.178;4.500;2023-05-18T00:10:22;30.75;29.44;33.64;;
66463;Laerm;56827;52.178;4.500;2023-05-18T00:10:32;30.38;28.76;34.26;;
66463;Laerm;56827;52.178;4.500;2023-05-18T00:10:43;29.87;28.38;35.14;;
66463;Laerm;56827;52.178;4.500;2023-05-18T00:10:53;30.66;29.02;36.08;;
66463;Laerm;56827;52.178;4.500;2023-05-18T00:11:04;30.05;28.95;31.10;;
66463;Laerm;56827;52.178;4.500;2023-05-18T00:11:14;30.62;28.97;39.02;;
66463;Laerm;56827;52.178;4.500;2023-05-18T00:11:25;30.36;29.02;33.62;;
66463;Laerm;56827;52.178;4.500;2023-05-18T00:11:35;30.91;29.22;34.77;;
66463;Laerm;56827;52.178;4.500;2023-05-18T00:11:50;31.36;29.09;41.30;;
66463;Laerm;56827;52.178;4.500;2023-05-18T00:12:01;30.34;28.73;35.71;;
66463;Laerm;56827;52.178;4.500;2023-05-18T00:12:12;30.15;28.62;34.73;;
66463;Laerm;56827;52.178;4.500;2023-05-18T00:12:22;30.46;29.17;31.90;;
66463;Laerm;56827;52.178;4.500;2023-05-18T00:12:32;30.77;28.81;34.90;;
66463;Laerm;56827;52.178;4.500;2023-05-18T00:12:43;30.44;29.03;31.86;;
66463;Laerm;56827;52.178;4.500;2023-05-18T00:12:53;30.60;29.21;33.63;;
66463;Laerm;56827;52.178;4.500;2023-05-18T00:13:03;30.19;28.75;32.66;;
66463;Laerm;56827;52.178;4.500;2023-05-18T00:13:14;29.87;28.13;31.53;;
66463;Laerm;56827;52.178;4.500;2023-05-18T00:13:24;30.37;28.76;36.06;;
66463;Laerm;56827;52.178;4.500;2023-05-18T00:13:34;30.41;28.72;37.52;;
66463;Laerm;56827;52.178;4.500;2023-05-18T00:13:45;30.71;29.34;33.81;;
66463;Laerm;56827;52.178;4.500;2023-05-18T00:13:55;30.41;28.96;32.17;;
66463;Laerm;56827;52.178;4.500;2023-05-18T00:14:05;30.10;28.83;31.70;;
66463;Laerm;56827;52.178;4.500;2023-05-18T00:14:17;29.91;28.62;31.19;;
66463;Laerm;56827;52.178;4.500;2023-05-18T00:14:27;30.25;28.86;33.73;;
66463;Laerm;56827;52.178;4.500;2023-05-18T00:14:37;30.37;28.96;33.72;;
66463;Laerm;56827;52.178;4.500;2023-05-18T00:14:48;29.85;28.65;31.48;;
66463;Laerm;56827;52.178;4.500;2023-05-18T00:14:58;30.15;28.99;31.83;;
66463;Laerm;56827;52.178;4.500;2023-05-18T00:15:08;30.04;28.73;31.57;;
66463;Laerm;56827;52.178;4.500;2023-05-18T00:15:19;30.29;28.84;33.06;;
66463;Laerm;56827;52.178;4.500;2023-05-18T00:15:29;30.14;28.91;31.45;;
66463;Laerm;56827;52.178;4.500;2023-05-18T00:15:40;29.97;28.62;33.07;;
66463;Laerm;56827;52.178;4.500;2023-05-18T00:15:50;30.06;28.34;31.68;;
66463;Laerm;56827;52.178;4.500;2023-05-18T00:16:00;30.11;28.41;33.84;;
66463;Laerm;56827;52.178;4.500;2023-05-18T00:16:10;30.08;28.54;32.62;;
66463;Laerm;56827;52.178;4.500;2023-05-18T00:16:22;29.92;28.63;34.39;;
66463;Laerm;56827;52.178;4.500;2023-05-18T00:16:32;30.02;28.72;32.11;;
66463;Laerm;56827;52.178;4.500;2023-05-18T00:16:43;29.85;28.81;34.79;;
66463;Laerm;56827;52.178;4.500;2023-05-18T00:16:53;29.89;28.14;31.09;;
66463;Laerm;56827;52.178;4.500;2023-05-18T00:17:03;30.21;28.45;37.55;;
66463;Laerm;56827;52.178;4.500;2023-05-18T00:17:14;30.60;28.57;37.04;;
66463;Laerm;56827;52.178;4.500;2023-05-18T00:17:24;29.97;28.46;31.21;;
66463;Laerm;56827;52.178;4.500;2023-05-18T00:17:35;29.86;28.55;31.40;;
66463;Laerm;56827;52.178;4.500;2023-05-18T00:17:45;30.63;28.95;33.89;;
66463;Laerm;56827;52.178;4.500;2023-05-18T00:17:55;30.28;28.97;33.36;;
66463;Laerm;56827;52.178;4.500;2023-05-18T00:18:06;29.89;28.78;31.10;;
66463;Laerm;56827;52.178;4.500;2023-05-18T00:18:16;30.22;28.92;32.03;;
66463;Laerm;56827;52.178;4.500;2023-05-18T00:18:26;30.18;28.89;31.47;;
66463;Laerm;56827;52.178;4.500;2023-05-18T00:18:37;30.23;28.86;32.51;;
66463;Laerm;56827;52.178;4.500;2023-05-18T00:18:47;30.48;29.06;32.10;;
66463;Laerm;56827;52.178;4.500;2023-05-18T00:18:57;35.96;29.43;46.49;;
66463;Laerm;56827;52.178;4.500;2023-05-18T00:19:08;36.73;30.96;47.90;;
66463;Laerm;56827;52.178;4.500;2023-05-18T00:19:19;32.54;28.98;41.96;;
66463;Laerm;56827;52.178;4.500;2023-05-18T00:19:29;30.66;28.84;35.16;;
66463;Laerm;56827;52.178;4.500;2023-05-18T00:19:40;30.50;28.96;37.02;;
66463;Laerm;56827;52.178;4.500;2023-05-18T00:19:50;30.71;29.51;32.95;;
66463;Laerm;56827;52.178;4.500;2023-05-18T00:20:01;33.53;29.60;53.27;;
66463;Laerm;56827;52.178;4.500;2023-05-18T00:20:14;31.34;29.14;36.16;;
66463;Laerm;56827;52.178;4.500;2023-05-18T00:20:24;34.94;30.43;40.66;;
66463;Laerm;56827;52.178;4.500;2023-05-18T00:20:35;34.04;31.50;36.47;;
66463;Laerm;56827;52.178;4.500;2023-05-18T00:20:45;32.14;30.12;34.62;;
66463;Laerm;56827;52.178;4.500;2023-05-18T00:20:56;30.71;29.10;31.89;;
66463;Laerm;56827;52.178;4.500;2023-05-18T00:21:09;31.20;28.96;43.65;;
66463;Laerm;56827;52.178;4.500;2023-05-18T00:21:19;30.02;28.93;31.26;;
66463;Laerm;56827;52.178;4.500;2023-05-18T00:21:29;30.54;28.75;32.85;;
66463;Laerm;56827;52.178;4.500;2023-05-18T00:21:42;30.19;28.60;32.75;;
66463;Laerm;56827;52.178;4.500;2023-05-18T00:21:53;30.47;29.04;32.56;;
66463;Laerm;56827;52.178;4.500;2023-05-18T00:22:05;29.82;28.18;32.47;;
66463;Laerm;56827;52.178;4.500;2023-05-18T00:22:16;29.80;28.58;30.87;;
66463;Laerm;56827;52.178;4.500;2023-05-18T00:22:27;29.85;28.77;31.19;;
66463;Laerm;56827;52.178;4.500;2023-05-18T00:22:38;29.91;28.73;31.22;;
66463;Laerm;56827;52.178;4.500;2023-05-18T00:22:51;30.11;28.77;33.72;;
66463;Laerm;56827;52.178;4.500;2023-05-18T00:23:02;31.68;29.12;38.02;;
66463;Laerm;56827;52.178;4.500;2023-05-18T00:23:12;34.84;29.16;44.55;;
66463;Laerm;56827;52.178;4.500;2023-05-18T00:23:28;32.11;29.93;42.10;;
66463;Laerm;56827;52.178;4.500;2023-05-18T00:23:41;30.16;28.23;32.14;;
66463;Laerm;56827;52.178;4.500;2023-05-18T00:23:58;29.89;28.65;32.32;;
66463;Laerm;56827;52.178;4.500;2023-05-18T00:24:09;30.13;28.99;31.32;;
66463;Laerm;56827;52.178;4.500;2023-05-18T00:24:22;29.99;28.66;31.57;;
66463;Laerm;56827;52.178;4.500;2023-05-18T00:24:32;30.20;29.03;31.78;;
66463;Laerm;56827;52.178;4.500;2023-05-18T00:24:45;30.93;29.22;32.70;;
66463;Laerm;56827;52.178;4.500;2023-05-18T00:24:56;30.51;28.92;32.20;;
66463;Laerm;56827;52.178;4.500;2023-05-18T00:25:06;30.29;28.95;31.70;;
66463;Laerm;56827;52.178;4.500;2023-05-18T00:25:17;29.99;28.68;32.65;;
66463;Laerm;56827;52.178;4.500;2023-05-18T00:25:27;29.93;28.75;30.99;;
66463;Laerm;56827;52.178;4.500;2023-05-18T00:25:37;30.36;28.97;32.79;;
66463;Laerm;56827;52.178;4.500;2023-05-18T00:25:47;30.22;28.54;33.02;;
66463;Laerm;56827;52.178;4.500;2023-05-18T00:25:58;30.06;28.98;31.26;;
66463;Laerm;56827;52.178;4.500;2023-05-18T00:26:08;30.18;28.94;31.44;;
66463;Laerm;56827;52.178;4.500;2023-05-18T00:26:19;30.54;29.03;32.66;;
66463;Laerm;56827;52.178;4.500;2023-05-18T00:26:29;35.58;29.95;42.31;;
66463;Laerm;56827;52.178;4.500;2023-05-18T00:26:41;40.18;31.42;47.19;;
66463;Laerm;56827;52.178;4.500;2023-05-18T00:26:51;46.09;39.57;52.77;;
66463;Laerm;56827;52.178;4.500;2023-05-18T00:27:01;46.42;40.26;55.22;;
66463;Laerm;56827;52.178;4.500;2023-05-18T00:27:12;46.40;37.84;56.03;;
66463;Laerm;56827;52.178;4.500;2023-05-18T00:27:22;39.74;32.39;46.38;;
66463;Laerm;56827;52.178;4.500;2023-05-18T00:27:33;34.31;31.57;37.32;;
66463;Laerm;56827;52.178;4.500;2023-05-18T00:27:43;32.12;29.70;34.20;;
66463;Laerm;56827;52.178;4.500;2023-05-18T00:27:53;33.09;30.57;36.21;;
66463;Laerm;56827;52.178;4.500;2023-05-18T00:28:03;31.63;29.73;34.50;;
66463;Laerm;56827;52.178;4.500;2023-05-18T00:28:14;31.26;29.48;32.72;;
66463;Laerm;56827;52.178;4.500;2023-05-18T00:28:24;30.49;28.88;31.84;;
66463;Laerm;56827;52.178;4.500;2023-05-18T00:28:35;30.90;29.41;32.25;;
66463;Laerm;56827;52.178;4.500;2023-05-18T00:28:45;30.57;29.23;31.75;;
66463;Laerm;56827;52.178;4.500;2023-05-18T00:28:55;30.12;28.63;31.36;;
66463;Laerm;56827;52.178;4.500;2023-05-18T00:29:06;29.88;28.46;31.68;;
66463;Laerm;56827;52.178;4.500;2023-05-18T00:29:16;30.12;28.68;33.16;;
66463;Laerm;56827;52.178;4.500;2023-05-18T00:29:26;30.92;29.21;35.90;;
66463;Laerm;56827;52.178;4.500;2023-05-18T00:29:38;30.05;28.80;31.24;;
66463;Laerm;56827;52.178;4.500;2023-05-18T00:29:49;33.10;28.54;47.63;;
66463;Laerm;56827;52.178;4.500;2023-05-18T00:29:59;30.04;28.57;31.58;;
66463;Laerm;56827;52.178;4.500;2023-05-18T00:30:10;30.82;29.34;35.71;;
66463;Laerm;56827;52.178;4.500;2023-05-18T00:30:20;31.12;29.10;33.11;;
66463;Laerm;56827;52.178;4.500;2023-05-18T00:30:32;31.04;29.19;33.32;;
66463;Laerm;56827;52.178;4.500;2023-05-18T00:30:43;31.12;29.22;33.21;;
66463;Laerm;56827;52.178;4.500;2023-05-18T00:30:53;30.87;29.23;33.00;;
66463;Laerm;56827;52.178;4.500;2023-05-18T00:31:04;30.53;28.72;33.63;;
66463;Laerm;56827;52.178;4.500;2023-05-18T00:31:15;30.37;28.57;32.97;;
66463;Laerm;56827;52.178;4.500;2023-05-18T00:31:25;29.79;28.76;30.95;;
66463;Laerm;56827;52.178;4.500;2023-05-18T00:31:35;29.72;28.64;30.83;;
66463;Laerm;56827;52.178;4.500;2023-05-18T00:31:47;29.89;28.44;32.03;;
66463;Laerm;56827;52.178;4.500;2023-05-18T00:31:57;30.17;28.70;32.09;;
66463;Laerm;56827;52.178;4.500;2023-05-18T00:32:07;30.19;28.94;31.63;;
66463;Laerm;56827;52.178;4.500;2023-05-18T00:32:18;31.08;29.28;33.50;;
66463;Laerm;56827;52.178;4.500;2023-05-18T00:32:28;30.70;29.34;33.08;;
66463;Laerm;56827;52.178;4.500;2023-05-18T00:32:38;30.31;28.73;31.45;;
66463;Laerm;56827;52.178;4.500;2023-05-18T00:32:48;30.26;29.00;33.71;;
66463;Laerm;56827;52.178;4.500;2023-05-18T00:32:59;29.85;28.64;31.07;;
66463;Laerm;56827;52.178;4.500;2023-05-18T00:33:09;29.97;28.69;33.70;;
66463;Laerm;56827;52.178;4.500;2023-05-18T00:33:20;29.82;28.58;31.57;;
66463;Laerm;56827;52.178;4.500;2023-05-18T00:33:30;29.61;28.51;30.76;;
66463;Laerm;56827;52.178;4.500;2023-05-18T00:33:40;29.64;28.66;31.05;;
66463;Laerm;56827;52.178;4.500;2023-05-18T00:33:50;29.83;28.85;31.15;;
66463;Laerm;56827;52.178;4.500;2023-05-18T00:34:01;30.58;28.97;32.01;;
66463;Laerm;56827;52.178;4.500;2023-05-18T00:34:13;29.96;28.69;31.21;;
66463;Laerm;56827;52.178;4.500;2023-05-18T00:34:23;30.88;28.80;32.70;;
66463;Laerm;56827;52.178;4.500;2023-05-18T00:34:34;30.66;28.78;33.09;;
66463;Laerm;56827;52.178;4.500;2023-05-18T00:34:44;29.83;28.65;31.26;;
66463;Laerm;56827;52.178;4.500;2023-05-18T00:34:54;30.51;29.14;39.33;;
66463;Laerm;56827;52.178;4.500;2023-05-18T00:35:04;31.53;28.51;40.87;;
66463;Laerm;56827;52.178;4.500;2023-05-18T00:35:15;37.15;29.70;46.31;;
66463;Laerm;56827;52.178;4.500;2023-05-18T00:35:25;37.31;29.21;46.38;;
66463;Laerm;56827;52.178;4.500;2023-05-18T00:35:35;31.56;28.61;38.07;;
66463;Laerm;56827;52.178;4.500;2023-05-18T00:35:45;30.09;28.49;32.24;;
66463;Laerm;56827;52.178;4.500;2023-05-18T00:35:56;30.14;28.79;32.27;;
66463;Laerm;56827;52.178;4.500;2023-05-18T00:36:06;29.52;28.27;30.74;;
66463;Laerm;56827;52.178;4.500;2023-05-18T00:36:16;29.51;28.48;31.01;;
66463;Laerm;56827;52.178;4.500;2023-05-18T00:36:26;29.51;28.42;31.02;;
66463;Laerm;56827;52.178;4.500;2023-05-18T00:36:37;29.75;28.67;31.43;;
66463;Laerm;56827;52.178;4.500;2023-05-18T00:36:47;29.38;28.22;30.44;;
66463;Laerm;56827;52.178;4.500;2023-05-18T00:36:57;29.29;28.11;30.25;;
66463;Laerm;56827;52.178;4.500;2023-05-18T00:37:07;29.24;28.32;30.18;;
66463;Laerm;56827;52.178;4.500;2023-05-18T00:37:18;29.42;28.19;30.49;;
66463;Laerm;56827;52.178;4.500;2023-05-18T00:37:28;29.41;28.52;30.36;;
66463;Laerm;56827;52.178;4.500;2023-05-18T00:37:38;29.41;28.18;30.95;;
66463;Laerm;56827;52.178;4.500;2023-05-18T00:37:48;29.57;28.55;30.74;;
66463;Laerm;56827;52.178;4.500;2023-05-18T00:37:58;30.47;28.43;32.52;;
66463;Laerm;56827;52.178;4.500;2023-05-18T00:38:09;29.68;28.51;30.86;;
66463;Laerm;56827;52.178;4.500;2023-05-18T00:38:21;30.57;28.71;32.10;;
66463;Laerm;56827;52.178;4.500;2023-05-18T00:38:31;29.94;28.63;32.29;;
66463;Laerm;56827;52.178;4.500;2023-05-18T00:38:41;31.03;29.11;35.71;;
66463;Laerm;56827;52.178;4.500;2023-05-18T00:38:51;29.70;28.55;30.93;;
66463;Laerm;56827;52.178;4.500;2023-05-18T00:39:02;29.61;28.15;30.68;;
66463;Laerm;56827;52.178;4.500;2023-05-18T00:39:13;29.53;28.23;33.51;;
66463;Laerm;56827;52.178;4.500;2023-05-18T00:39:23;30.63;28.55;40.41;;
66463;Laerm;56827;52.178;4.500;2023-05-18T00:39:33;34.27;30.61;43.95;;
66463;Laerm;56827;52.178;4.500;2023-05-18T00:39:44;30.38;28.81;33.46;;
66463;Laerm;56827;52.178;4.500;2023-05-18T00:39:54;29.63;28.46;30.67;;
66463;Laerm;56827;52.178;4.500;2023-05-18T00:40:05;29.49;28.51;30.69;;
66463;Laerm;56827;52.178;4.500;2023-05-18T00:40:15;29.74;28.49;31.12;;
66463;Laerm;56827;52.178;4.500;2023-05-18T00:40:25;30.55;28.89;32.49;;
66463;Laerm;56827;52.178;4.500;2023-05-18T00:40:38;29.67;28.44;32.48;;
66463;Laerm;56827;52.178;4.500;2023-05-18T00:40:48;29.54;28.43;31.37;;
66463;Laerm;56827;52.178;4.500;2023-05-18T00:40:58;29.32;28.24;30.66;;
66463;Laerm;56827;52.178;4.500;2023-05-18T00:41:09;29.25;27.94;30.40;;
66463;Laerm;56827;52.178;4.500;2023-05-18T00:41:19;29.53;28.45;31.99;;
66463;Laerm;56827;52.178;4.500;2023-05-18T00:41:30;31.32;28.62;37.97;;
66463;Laerm;56827;52.178;4.500;2023-05-18T00:41:41;29.59;28.30;32.17;;
66463;Laerm;56827;52.178;4.500;2023-05-18T00:41:51;30.15;28.98;31.78;;
66463;Laerm;56827;52.178;4.500;2023-05-18T00:42:01;33.65;30.25;36.60;;
66463;Laerm;56827;52.178;4.500;2023-05-18T00:42:12;31.71;29.74;42.09;;
66463;Laerm;56827;52.178;4.500;2023-05-18T00:42:22;31.09;29.05;33.38;;
66463;Laerm;56827;52.178;4.500;2023-05-18T00:42:32;31.00;29.35;32.87;;
66463;Laerm;56827;52.178;4.500;2023-05-18T00:42:42;30.72;28.77;33.45;;
66463;Laerm;56827;52.178;4.500;2023-05-18T00:42:53;30.67;28.93;33.78;;
66463;Laerm;56827;52.178;4.500;2023-05-18T00:43:03;29.74;28.46;30.98;;
66463;Laerm;56827;52.178;4.500;2023-05-18T00:43:13;29.91;28.32;31.19;;
66463;Laerm;56827;52.178;4.500;2023-05-18T00:43:23;29.61;28.53;30.87;;
66463;Laerm;56827;52.178;4.500;2023-05-18T00:43:34;29.64;28.38;30.72;;
66463;Laerm;56827;52.178;4.500;2023-05-18T00:43:44;29.98;28.87;31.13;;
66463;Laerm;56827;52.178;4.500;2023-05-18T00:43:54;29.82;28.62;31.65;;
66463;Laerm;56827;52.178;4.500;2023-05-18T00:44:05;29.74;28.60;30.97;;
66463;Laerm;56827;52.178;4.500;2023-05-18T00:44:15;29.50;28.45;30.55;;
66463;Laerm;56827;52.178;4.500;2023-05-18T00:44:25;30.14;28.16;43.32;;
66463;Laerm;56827;52.178;4.500;2023-05-18T00:44:36;29.50;28.48;30.76;;
66463;Laerm;56827;52.178;4.500;2023-05-18T00:44:46;29.43;28.40;30.45;;
66463;Laerm;56827;52.178;4.500;2023-05-18T00:44:56;30.22;28.34;43.52;;
66463;Laerm;56827;52.178;4.500;2023-05-18T00:45:06;29.48;28.40;30.58;;
66463;Laerm;56827;52.178;4.500;2023-05-18T00:45:17;29.46;28.44;30.70;;
66463;Laerm;56827;52.178;4.500;2023-05-18T00:45:27;29.53;28.51;30.83;;
66463;Laerm;56827;52.178;4.500;2023-05-18T00:45:37;29.70;28.63;31.74;;
66463;Laerm;56827;52.178;4.500;2023-05-18T00:45:48;29.56;28.50;31.07;;
66463;Laerm;56827;52.178;4.500;2023-05-18T00:45:58;29.81;28.65;31.34;;
66463;Laerm;56827;52.178;4.500;2023-05-18T00:46:08;30.03;28.83;31.21;;
66463;Laerm;56827;52.178;4.500;2023-05-18T00:46:19;29.76;28.77;31.35;;
66463;Laerm;56827;52.178;4.500;2023-05-18T00:46:29;29.85;28.79;33.92;;
66463;Laerm;56827;52.178;4.500;2023-05-18T00:46:40;29.84;28.64;31.04;;
66463;Laerm;56827;52.178;4.500;2023-05-18T00:46:53;30.00;28.09;31.53;;
66463;Laerm;56827;52.178;4.500;2023-05-18T00:47:03;30.51;29.00;31.93;;
66463;Laerm;56827;52.178;4.500;2023-05-18T00:47:13;30.91;28.80;33.84;;
66463;Laerm;56827;52.178;4.500;2023-05-18T00:47:24;33.62;31.54;36.22;;
66463;Laerm;56827;52.178;4.500;2023-05-18T00:47:34;39.58;33.30;46.12;;
66463;Laerm;56827;52.178;4.500;2023-05-18T00:47:45;47.82;39.92;52.82;;
66463;Laerm;56827;52.178;4.500;2023-05-18T00:47:56;49.02;42.84;56.21;;
66463;Laerm;56827;52.178;4.500;2023-05-18T00:48:06;49.27;40.99;55.29;;
66463;Laerm;56827;52.178;4.500;2023-05-18T00:48:16;45.02;39.99;49.85;;
66463;Laerm;56827;52.178;4.500;2023-05-18T00:48:26;40.16;34.50;47.18;;
66463;Laerm;56827;52.178;4.500;2023-05-18T00:48:37;40.25;31.81;61.52;;
66463;Laerm;56827;52.178;4.500;2023-05-18T00:48:47;35.79;31.52;40.38;;
66463;Laerm;56827;52.178;4.500;2023-05-18T00:48:58;32.67;31.32;35.51;;
66463;Laerm;56827;52.178;4.500;2023-05-18T00:49:12;31.55;29.80;33.43;;
66463;Laerm;56827;52.178;4.500;2023-05-18T00:49:22;31.44;29.78;33.72;;
66463;Laerm;56827;52.178;4.500;2023-05-18T00:49:32;31.53;29.99;33.09;;
66463;Laerm;56827;52.178;4.500;2023-05-18T00:49:43;30.81;29.20;32.28;;
66463;Laerm;56827;52.178;4.500;2023-05-18T00:49:53;30.58;29.13;38.66;;
66463;Laerm;56827;52.178;4.500;2023-05-18T00:50:03;30.40;29.05;32.37;;
66463;Laerm;56827;52.178;4.500;2023-05-18T00:50:14;30.75;28.84;34.00;;
66463;Laerm;56827;52.178;4.500;2023-05-18T00:50:24;30.09;28.98;31.65;;
66463;Laerm;56827;52.178;4.500;2023-05-18T00:50:35;30.19;28.90;31.44;;
66463;Laerm;56827;52.178;4.500;2023-05-18T00:50:45;30.80;29.06;32.66;;
66463;Laerm;56827;52.178;4.500;2023-05-18T00:50:55;30.47;28.99;32.60;;
66463;Laerm;56827;52.178;4.500;2023-05-18T00:51:06;30.53;28.74;32.90;;
66463;Laerm;56827;52.178;4.500;2023-05-18T00:51:16;30.06;28.79;31.31;;
66463;Laerm;56827;52.178;4.500;2023-05-18T00:51:27;30.23;28.84;31.36;;
66463;Laerm;56827;52.178;4.500;2023-05-18T00:51:38;30.02;28.56;31.27;;
66463;Laerm;56827;52.178;4.500;2023-05-18T00:51:49;30.19;28.99;31.46;;
66463;Laerm;56827;52.178;4.500;2023-05-18T00:52:00;30.12;28.95;31.41;;
66463;Laerm;56827;52.178;4.500;2023-05-18T00:52:10;29.77;28.69;30.85;;
66463;Laerm;56827;52.178;4.500;2023-05-18T00:52:20;29.73;28.72;30.97;;
66463;Laerm;56827;52.178;4.500;2023-05-18T00:52:31;29.64;28.42;30.73;;
66463;Laerm;56827;52.178;4.500;2023-05-18T00:52:42;29.68;28.50;30.72;;
66463;Laerm;56827;52.178;4.500;2023-05-18T00:52:52;29.74;28.03;31.20;;
66463;Laerm;56827;52.178;4.500;2023-05-18T00:53:03;29.77;28.47;31.17;;
66463;Laerm;56827;52.178;4.500;2023-05-18T00:53:14;30.20;28.62;37.07;;
66463;Laerm;56827;52.178;4.500;2023-05-18T00:53:24;29.67;28.50;31.13;;
66463;Laerm;56827;52.178;4.500;2023-05-18T00:53:37;29.81;28.60;30.82;;
66463;Laerm;56827;52.178;4.500;2023-05-18T00:53:48;30.03;28.16;31.47;;
66463;Laerm;56827;52.178;4.500;2023-05-18T00:53:59;30.07;28.79;32.75;;
66463;Laerm;56827;52.178;4.500;2023-05-18T00:54:10;29.76;28.67;31.19;;
66463;Laerm;56827;52.178;4.500;2023-05-18T00:54:20;29.95;28.62;31.22;;
66463;Laerm;56827;52.178;4.500;2023-05-18T00:54:31;30.16;28.80;32.06;;
66463;Laerm;56827;52.178;4.500;2023-05-18T00:54:42;30.60;29.24;32.61;;
66463;Laerm;56827;52.178;4.500;2023-05-18T00:54:52;29.67;28.39;30.73;;
66463;Laerm;56827;52.178;4.500;2023-05-18T00:55:02;29.93;28.95;31.20;;
66463;Laerm;56827;52.178;4.500;2023-05-18T00:55:13;29.97;28.85;32.61;;
66463;Laerm;56827;52.178;4.500;2023-05-18T00:55:24;29.80;28.69;31.73;;
66463;Laerm;56827;52.178;4.500;2023-05-18T00:55:36;30.00;28.68;31.49;;
66463;Laerm;56827;52.178;4.500;2023-05-18T00:55:47;30.26;28.88;31.90;;
66463;Laerm;56827;52.178;4.500;2023-05-18T00:55:57;30.38;28.83;32.24;;
66463;Laerm;56827;52.178;4.500;2023-05-18T00:56:09;31.19;28.89;47.93;;
66463;Laerm;56827;52.178;4.500;2023-05-18T00:56:20;30.15;28.97;36.40;;
66463;Laerm;56827;52.178;4.500;2023-05-18T00:56:34;30.94;28.92;35.14;;
66463;Laerm;56827;52.178;4.500;2023-05-18T00:56:44;29.93;28.60;32.12;;
66463;Laerm;56827;52.178;4.500;2023-05-18T00:56:55;29.82;28.64;35.53;;
66463;Laerm;56827;52.178;4.500;2023-05-18T00:57:05;29.70;28.66;31.60;;
66463;Laerm;56827;52.178;4.500;2023-05-18T00:57:16;29.55;28.34;31.28;;
66463;Laerm;56827;52.178;4.500;2023-05-18T00:57:28;29.56;28.29;30.59;;
66463;Laerm;56827;52.178;4.500;2023-05-18T00:57:41;29.60;28.51;30.86;;
66463;Laerm;56827;52.178;4.500;2023-05-18T00:57:53;29.66;28.47;30.73;;
66463;Laerm;56827;52.178;4.500;2023-05-18T00:58:05;30.00;28.68;32.23;;
66463;Laerm;56827;52.178;4.500;2023-05-18T00:58:16;30.03;28.78;32.29;;
66463;Laerm;56827;52.178;4.500;2023-05-18T00:58:26;29.84;28.10;31.61;;
66463;Laerm;56827;52.178;4.500;2023-05-18T00:58:39;30.02;28.98;31.32;;
66463;Laerm;56827;52.178;4.500;2023-05-18T00:58:53;30.62;28.99;34.39;;
66463;Laerm;56827;52.178;4.500;2023-05-18T00:59:06;30.10;28.73;40.56;;
66463;Laerm;56827;52.178;4.500;2023-05-18T00:59:19;30.24;28.76;33.99;;
66463;Laerm;56827;52.178;4.500;2023-05-18T00:59:29;29.65;28.74;30.96;;
66463;Laerm;56827;52.178;4.500;2023-05-18T00:59:39;29.86;28.60;31.41;;
66463;Laerm;56827;52.178;4.500;2023-05-18T00:59:50;32.26;29.00;38.70;;
66463;Laerm;56827;52.178;4.500;2023-05-18T01:00:01;31.83;29.29;36.89;;
66463;Laerm;56827;52.178;4.500;2023-05-18T01:00:12;32.93;28.89;39.12;;